sensor_id;sensor_type;location;lat;lon;timestamp;temperature;humidity
5588;DHT22;2816;49.778;9.986;2023-02-01T00:01:09;3.60;99.90
5588;DHT22;2816;49.778;9.986;2023-02-01T00:03:36;3.70;99.90
5588;DHT22;2816;49.778;9.986;2023-02-01T00:06:05;3.70;99.90
5588;DHT22;2816;49.778;9.986;2023-02-01T00:08:32;3.70;99.90
5588;DHT22;2816;49.778;9.986;2023-02-01T00:10:59;3.60;99.90
5588;DHT22;2816;49.778;9.986;2023-02-01T00:13:29;3.60;99.90
5588;DHT22;2816;49.778;9.986;2023-02-01T00:16:02;3.70;99.90
5588;DHT22;2816;49.778;9.986;2023-02-01T00:18:29;3.70;99.90
5588;DHT22;2816;49.778;9.986;2023-02-01T00:20:56;3.80;99.90
5588;DHT22;2816;49.778;9.986;2023-02-01T00:23:25;3.70;99.90
5588;DHT22;2816;49.778;9.986;2023-02-01T00:25:53;3.70;99.90
5588;DHT22;2816;49.778;9.986;2023-02-01T00:28:19;3.60;99.90
5588;DHT22;2816;49.778;9.986;2023-02-01T00:30:46;3.60;99.90
5588;DHT22;2816;49.778;9.986;2023-02-01T00:33:13;3.60;99.90
5588;DHT22;2816;49.778;9.986;2023-02-01T00:35:40;3.60;99.90
5588;DHT22;2816;49.778;9.986;2023-02-01T00:38:07;3.50;99.90
5588;DHT22;2816;49.778;9.986;2023-02-01T00:40:36;3.60;99.90
5588;DHT22;2816;49.778;9.986;2023-02-01T00:43:03;3.60;99.90
5588;DHT22;2816;49.778;9.986;2023-02-01T00:45:30;3.60;99.90
5588;DHT22;2816;49.778;9.986;2023-02-01T00:47:57;3.60;99.90
5588;DHT22;2816;49.778;9.986;2023-02-01T00:50:24;3.60;99.90
5588;DHT22;2816;49.778;9.986;2023-02-01T00:52:51;3.70;99.90
5588;DHT22;2816;49.778;9.986;2023-02-01T00:55:18;3.70;99.90
5588;DHT22;2816;49.778;9.986;2023-02-01T00:57:46;3.60;99.90
5588;DHT22;2816;49.778;9.986;2023-02-01T01:00:14;3.70;99.90
5588;DHT22;2816;49.778;9.986;2023-02-01T01:02:41;3.70;99.90
5588;DHT22;2816;49.778;9.986;2023-02-01T01:05:08;3.70;99.90
5588;DHT22;2816;49.778;9.986;2023-02-01T01:07:35;3.70;99.90
5588;DHT22;2816;49.778;9.986;2023-02-01T01:10:02;3.60;99.90
5588;DHT22;2816;49.778;9.986;2023-02-01T01:12:30;3.60;99.90
5588;DHT22;2816;49.778;9.986;2023-02-01T01:14:58;3.60;99.90
5588;DHT22;2816;49.778;9.986;2023-02-01T01:17:25;3.60;99.90
5588;DHT22;2816;49.778;9.986;2023-02-01T01:19:52;3.60;99.90
5588;DHT22;2816;49.778;9.986;2023-02-01T01:22:20;3.60;99.90
5588;DHT22;2816;49.778;9.986;2023-02-01T01:24:47;3.70;99.90
5588;DHT22;2816;49.778;9.986;2023-02-01T01:27:14;3.60;99.90
5588;DHT22;2816;49.778;9.986;2023-02-01T01:29:41;3.50;99.90
5588;DHT22;2816;49.778;9.986;2023-02-01T01:32:09;3.60;99.90
5588;DHT22;2816;49.778;9.986;2023-02-01T01:34:36;3.60;99.90
5588;DHT22;2816;49.778;9.986;2023-02-01T01:37:04;3.60;99.90
5588;DHT22;2816;49.778;9.986;2023-02-01T01:39:31;3.60;99.90
5588;DHT22;2816;49.778;9.986;2023-02-01T01:41:57;3.50;99.90
5588;DHT22;2816;49.778;9.986;2023-02-01T01:44:56;3.60;99.90
5588;DHT22;2816;49.778;9.986;2023-02-01T01:47:25;3.70;99.90
5588;DHT22;2816;49.778;9.986;2023-02-01T01:49:53;3.70;99.90
5588;DHT22;2816;49.778;9.986;2023-02-01T01:52:21;3.70;99.90
5588;DHT22;2816;49.778;9.986;2023-02-01T01:54:51;3.50;99.90
5588;DHT22;2816;49.778;9.986;2023-02-01T01:57:22;3.60;99.90
5588;DHT22;2816;49.778;9.986;2023-02-01T01:59:54;3.70;99.90
5588;DHT22;2816;49.778;9.986;2023-02-01T02:02:22;3.70;99.90
5588;DHT22;2816;49.778;9.986;2023-02-01T02:04:51;3.60;99.90
5588;DHT22;2816;49.778;9.986;2023-02-01T02:07:22;3.70;99.90
5588;DHT22;2816;49.778;9.986;2023-02-01T02:09:50;3.70;99.90
5588;DHT22;2816;49.778;9.986;2023-02-01T02:12:18;3.70;99.90
5588;DHT22;2816;49.778;9.986;2023-02-01T02:14:45;3.70;99.90
5588;DHT22;2816;49.778;9.986;2023-02-01T02:17:25;3.70;99.90
5588;DHT22;2816;49.778;9.986;2023-02-01T02:20:25;3.70;99.90
5588;DHT22;2816;49.778;9.986;2023-02-01T02:32:22;4.00;99.90
5588;DHT22;2816;49.778;9.986;2023-02-01T02:34:55;3.80;99.90
5588;DHT22;2816;49.778;9.986;2023-02-01T02:37:30;3.80;99.90
5588;DHT22;2816;49.778;9.986;2023-02-01T02:40:04;3.80;99.90
5588;DHT22;2816;49.778;9.986;2023-02-01T02:42:38;3.80;99.90
5588;DHT22;2816;49.778;9.986;2023-02-01T02:45:27;3.80;99.90
5588;DHT22;2816;49.778;9.986;2023-02-01T02:48:17;3.90;99.90
5588;DHT22;2816;49.778;9.986;2023-02-01T02:50:53;3.80;99.90
5588;DHT22;2816;49.778;9.986;2023-02-01T02:53:43;3.80;99.90
5588;DHT22;2816;49.778;9.986;2023-02-01T02:56:33;3.80;99.90
5588;DHT22;2816;49.778;9.986;2023-02-01T02:59:21;3.80;99.90
5588;DHT22;2816;49.778;9.986;2023-02-01T03:02:08;3.70;99.90
5588;DHT22;2816;49.778;9.986;2023-02-01T03:04:53;3.70;99.90
5588;DHT22;2816;49.778;9.986;2023-02-01T03:07:50;3.70;99.90
5588;DHT22;2816;49.778;9.986;2023-02-01T03:10:24;3.70;99.90
5588;DHT22;2816;49.778;9.986;2023-02-01T03:12:54;3.70;99.90
5588;DHT22;2816;49.778;9.986;2023-02-01T03:15:30;3.70;99.90
5588;DHT22;2816;49.778;9.986;2023-02-01T03:18:01;3.80;99.90
5588;DHT22;2816;49.778;9.986;2023-02-01T03:20:30;3.90;99.90
5588;DHT22;2816;49.778;9.986;2023-02-01T03:23:00;3.90;99.90
5588;DHT22;2816;49.778;9.986;2023-02-01T03:25:29;3.80;99.90
5588;DHT22;2816;49.778;9.986;2023-02-01T03:28:01;3.90;99.90
5588;DHT22;2816;49.778;9.986;2023-02-01T03:30:32;3.80;99.90
5588;DHT22;2816;49.778;9.986;2023-02-01T03:33:02;3.70;99.90
5588;DHT22;2816;49.778;9.986;2023-02-01T03:35:32;3.80;99.90
5588;DHT22;2816;49.778;9.986;2023-02-01T03:38:11;3.70;99.90
5588;DHT22;2816;49.778;9.986;2023-02-01T03:40:40;3.80;99.90
5588;DHT22;2816;49.778;9.986;2023-02-01T03:43:12;3.80;99.90
5588;DHT22;2816;49.778;9.986;2023-02-01T03:45:44;3.80;99.90
5588;DHT22;2816;49.778;9.986;2023-02-01T03:48:16;3.80;99.90
5588;DHT22;2816;49.778;9.986;2023-02-01T03:50:48;3.70;99.90
5588;DHT22;2816;49.778;9.986;2023-02-01T03:53:20;3.80;99.90
5588;DHT22;2816;49.778;9.986;2023-02-01T03:55:50;3.70;99.90
5588;DHT22;2816;49.778;9.986;2023-02-01T03:58:19;3.80;99.90
5588;DHT22;2816;49.778;9.986;2023-02-01T04:00:50;3.80;99.90
5588;DHT22;2816;49.778;9.986;2023-02-01T04:03:18;3.70;99.90
5588;DHT22;2816;49.778;9.986;2023-02-01T04:05:45;3.70;99.90
5588;DHT22;2816;49.778;9.986;2023-02-01T04:08:12;3.70;99.90
5588;DHT22;2816;49.778;9.986;2023-02-01T04:10:40;3.70;99.90
5588;DHT22;2816;49.778;9.986;2023-02-01T04:13:07;3.60;99.90
5588;DHT22;2816;49.778;9.986;2023-02-01T04:15:34;3.80;99.90
5588;DHT22;2816;49.778;9.986;2023-02-01T04:18:01;3.80;99.90
5588;DHT22;2816;49.778;9.986;2023-02-01T04:20:28;3.70;99.90
5588;DHT22;2816;49.778;9.986;2023-02-01T04:22:55;3.70;99.90
5588;DHT22;2816;49.778;9.986;2023-02-01T04:25:23;3.70;99.90
5588;DHT22;2816;49.778;9.986;2023-02-01T04:27:52;3.60;99.90
5588;DHT22;2816;49.778;9.986;2023-02-01T04:30:19;3.60;99.90
5588;DHT22;2816;49.778;9.986;2023-02-01T04:32:45;3.60;99.90
5588;DHT22;2816;49.778;9.986;2023-02-01T04:35:12;3.60;99.90
5588;DHT22;2816;49.778;9.986;2023-02-01T04:37:39;3.60;99.90
5588;DHT22;2816;49.778;9.986;2023-02-01T04:40:07;3.60;99.90
5588;DHT22;2816;49.778;9.986;2023-02-01T04:42:34;3.50;99.90
5588;DHT22;2816;49.778;9.986;2023-02-01T04:45:03;3.50;99.90
5588;DHT22;2816;49.778;9.986;2023-02-01T04:47:30;3.50;99.90
5588;DHT22;2816;49.778;9.986;2023-02-01T04:49:57;3.50;99.90
5588;DHT22;2816;49.778;9.986;2023-02-01T04:52:24;3.50;99.90
5588;DHT22;2816;49.778;9.986;2023-02-01T04:54:52;3.50;99.90
5588;DHT22;2816;49.778;9.986;2023-02-01T04:57:23;3.50;99.90
5588;DHT22;2816;49.778;9.986;2023-02-01T04:59:49;3.50;99.90
5588;DHT22;2816;49.778;9.986;2023-02-01T05:02:18;3.50;99.90
5588;DHT22;2816;49.778;9.986;2023-02-01T05:04:45;3.50;99.90
5588;DHT22;2816;49.778;9.986;2023-02-01T05:07:12;3.50;99.90
5588;DHT22;2816;49.778;9.986;2023-02-01T05:09:39;3.60;99.90
5588;DHT22;2816;49.778;9.986;2023-02-01T05:12:06;3.60;99.90
5588;DHT22;2816;49.778;9.986;2023-02-01T05:14:50;3.60;99.90
5588;DHT22;2816;49.778;9.986;2023-02-01T05:17:20;3.50;99.90
5588;DHT22;2816;49.778;9.986;2023-02-01T05:19:47;3.50;99.90
5588;DHT22;2816;49.778;9.986;2023-02-01T05:22:14;3.40;99.90
5588;DHT22;2816;49.778;9.986;2023-02-01T05:24:41;3.40;99.90
5588;DHT22;2816;49.778;9.986;2023-02-01T05:27:07;3.30;99.90
5588;DHT22;2816;49.778;9.986;2023-02-01T05:29:34;3.30;99.90
5588;DHT22;2816;49.778;9.986;2023-02-01T05:32:01;3.30;99.90
5588;DHT22;2816;49.778;9.986;2023-02-01T05:34:30;3.20;99.90
5588;DHT22;2816;49.778;9.986;2023-02-01T05:36:56;3.20;99.90
5588;DHT22;2816;49.778;9.986;2023-02-01T05:39:23;3.20;99.90
5588;DHT22;2816;49.778;9.986;2023-02-01T05:41:51;3.20;99.90
5588;DHT22;2816;49.778;9.986;2023-02-01T05:44:17;3.20;99.90
5588;DHT22;2816;49.778;9.986;2023-02-01T05:46:44;3.20;99.90
5588;DHT22;2816;49.778;9.986;2023-02-01T05:49:11;3.10;99.90
5588;DHT22;2816;49.778;9.986;2023-02-01T05:51:40;3.10;99.90
5588;DHT22;2816;49.778;9.986;2023-02-01T05:54:08;3.10;99.90
5588;DHT22;2816;49.778;9.986;2023-02-01T05:56:35;3.20;99.90
5588;DHT22;2816;49.778;9.986;2023-02-01T05:59:02;3.20;99.90
5588;DHT22;2816;49.778;9.986;2023-02-01T06:01:29;3.20;99.90
5588;DHT22;2816;49.778;9.986;2023-02-01T06:03:57;3.10;99.90
5588;DHT22;2816;49.778;9.986;2023-02-01T06:06:23;3.20;99.90
5588;DHT22;2816;49.778;9.986;2023-02-01T06:08:52;3.20;99.90
5588;DHT22;2816;49.778;9.986;2023-02-01T06:11:19;3.20;99.90
5588;DHT22;2816;49.778;9.986;2023-02-01T06:13:45;3.10;99.90
5588;DHT22;2816;49.778;9.986;2023-02-01T06:16:12;3.20;99.90
5588;DHT22;2816;49.778;9.986;2023-02-01T06:18:41;3.20;99.90
5588;DHT22;2816;49.778;9.986;2023-02-01T06:21:08;3.30;99.90
5588;DHT22;2816;49.778;9.986;2023-02-01T06:23:35;3.20;99.90
5588;DHT22;2816;49.778;9.986;2023-02-01T06:26:05;3.20;99.90
5588;DHT22;2816;49.778;9.986;2023-02-01T06:28:33;3.20;99.90
5588;DHT22;2816;49.778;9.986;2023-02-01T06:31:03;3.20;99.90
5588;DHT22;2816;49.778;9.986;2023-02-01T06:33:32;3.40;99.90
5588;DHT22;2816;49.778;9.986;2023-02-01T06:36:00;3.30;99.90
5588;DHT22;2816;49.778;9.986;2023-02-01T06:38:27;3.40;99.90
5588;DHT22;2816;49.778;9.986;2023-02-01T06:40:55;3.40;99.90
5588;DHT22;2816;49.778;9.986;2023-02-01T06:43:25;3.50;99.90
5588;DHT22;2816;49.778;9.986;2023-02-01T06:45:53;3.40;99.90
5588;DHT22;2816;49.778;9.986;2023-02-01T06:48:20;3.40;99.90
5588;DHT22;2816;49.778;9.986;2023-02-01T06:50:47;3.40;99.90
5588;DHT22;2816;49.778;9.986;2023-02-01T06:53:14;3.30;99.90
5588;DHT22;2816;49.778;9.986;2023-02-01T06:55:41;3.30;99.90
5588;DHT22;2816;49.778;9.986;2023-02-01T06:58:08;3.40;99.90
5588;DHT22;2816;49.778;9.986;2023-02-01T07:00:36;3.40;99.90
5588;DHT22;2816;49.778;9.986;2023-02-01T07:03:03;3.40;99.90
5588;DHT22;2816;49.778;9.986;2023-02-01T07:05:30;3.50;99.90
5588;DHT22;2816;49.778;9.986;2023-02-01T07:07:57;3.50;99.90
5588;DHT22;2816;49.778;9.986;2023-02-01T07:10:24;3.50;99.90
5588;DHT22;2816;49.778;9.986;2023-02-01T07:12:51;3.50;99.90
5588;DHT22;2816;49.778;9.986;2023-02-01T07:15:18;3.40;99.90
5588;DHT22;2816;49.778;9.986;2023-02-01T07:17:46;3.40;99.90
5588;DHT22;2816;49.778;9.986;2023-02-01T07:20:14;3.40;99.90
5588;DHT22;2816;49.778;9.986;2023-02-01T07:22:41;3.40;99.90
5588;DHT22;2816;49.778;9.986;2023-02-01T07:25:09;3.50;99.90
5588;DHT22;2816;49.778;9.986;2023-02-01T07:27:36;3.50;99.90
5588;DHT22;2816;49.778;9.986;2023-02-01T07:30:03;3.50;99.90
5588;DHT22;2816;49.778;9.986;2023-02-01T07:32:31;3.60;99.90
5588;DHT22;2816;49.778;9.986;2023-02-01T07:34:59;3.80;99.90
5588;DHT22;2816;49.778;9.986;2023-02-01T07:37:26;3.70;99.90
5588;DHT22;2816;49.778;9.986;2023-02-01T07:39:53;3.70;99.90
5588;DHT22;2816;49.778;9.986;2023-02-01T07:42:20;3.70;99.90
5588;DHT22;2816;49.778;9.986;2023-02-01T07:44:47;3.80;99.90
5588;DHT22;2816;49.778;9.986;2023-02-01T07:47:14;3.70;99.90
5588;DHT22;2816;49.778;9.986;2023-02-01T07:49:41;3.80;99.90
5588;DHT22;2816;49.778;9.986;2023-02-01T07:52:09;3.90;99.90
5588;DHT22;2816;49.778;9.986;2023-02-01T07:54:38;3.80;99.90
5588;DHT22;2816;49.778;9.986;2023-02-01T07:57:05;3.90;99.90
5588;DHT22;2816;49.778;9.986;2023-02-01T07:59:34;4.00;99.90
5588;DHT22;2816;49.778;9.986;2023-02-01T08:02:01;4.10;99.90
5588;DHT22;2816;49.778;9.986;2023-02-01T08:04:27;4.10;99.90
5588;DHT22;2816;49.778;9.986;2023-02-01T08:06:54;4.00;99.90
5588;DHT22;2816;49.778;9.986;2023-02-01T08:09:22;4.00;99.90
5588;DHT22;2816;49.778;9.986;2023-02-01T08:11:49;4.00;99.90
5588;DHT22;2816;49.778;9.986;2023-02-01T08:14:16;4.20;99.90
5588;DHT22;2816;49.778;9.986;2023-02-01T08:16:43;4.00;99.90
5588;DHT22;2816;49.778;9.986;2023-02-01T08:19:10;4.10;99.90
5588;DHT22;2816;49.778;9.986;2023-02-01T08:21:37;4.10;99.90
5588;DHT22;2816;49.778;9.986;2023-02-01T08:24:06;4.10;99.90
5588;DHT22;2816;49.778;9.986;2023-02-01T08:26:36;4.10;99.90
5588;DHT22;2816;49.778;9.986;2023-02-01T08:29:04;4.10;99.90
5588;DHT22;2816;49.778;9.986;2023-02-01T08:31:31;4.10;99.90
5588;DHT22;2816;49.778;9.986;2023-02-01T08:33:59;4.20;99.90
5588;DHT22;2816;49.778;9.986;2023-02-01T08:36:28;4.10;99.90
5588;DHT22;2816;49.778;9.986;2023-02-01T08:38:55;4.30;99.90
5588;DHT22;2816;49.778;9.986;2023-02-01T08:41:24;4.10;99.90
5588;DHT22;2816;49.778;9.986;2023-02-01T08:43:53;4.10;99.90
5588;DHT22;2816;49.778;9.986;2023-02-01T08:46:21;4.10;99.90
5588;DHT22;2816;49.778;9.986;2023-02-01T08:48:48;4.10;99.90
5588;DHT22;2816;49.778;9.986;2023-02-01T08:51:18;4.10;99.90
5588;DHT22;2816;49.778;9.986;2023-02-01T08:53:46;4.30;99.90
5588;DHT22;2816;49.778;9.986;2023-02-01T08:56:14;4.30;99.90
5588;DHT22;2816;49.778;9.986;2023-02-01T08:58:41;4.70;99.90
5588;DHT22;2816;49.778;9.986;2023-02-01T09:01:12;4.70;99.90
5588;DHT22;2816;49.778;9.986;2023-02-01T09:03:41;4.80;99.90
5588;DHT22;2816;49.778;9.986;2023-02-01T09:06:10;4.80;99.90
5588;DHT22;2816;49.778;9.986;2023-02-01T09:08:38;4.80;99.90
5588;DHT22;2816;49.778;9.986;2023-02-01T09:11:08;4.90;99.90
5588;DHT22;2816;49.778;9.986;2023-02-01T09:13:36;4.80;99.90
5588;DHT22;2816;49.778;9.986;2023-02-01T09:16:04;4.80;99.90
5588;DHT22;2816;49.778;9.986;2023-02-01T09:18:32;4.80;99.90
5588;DHT22;2816;49.778;9.986;2023-02-01T09:21:04;4.90;99.90
5588;DHT22;2816;49.778;9.986;2023-02-01T09:23:31;4.90;99.90
5588;DHT22;2816;49.778;9.986;2023-02-01T09:25:59;4.90;99.90
5588;DHT22;2816;49.778;9.986;2023-02-01T09:28:25;4.90;99.90
5588;DHT22;2816;49.778;9.986;2023-02-01T09:30:55;4.80;99.90
5588;DHT22;2816;49.778;9.986;2023-02-01T09:33:23;4.80;99.90
5588;DHT22;2816;49.778;9.986;2023-02-01T09:35:56;4.70;99.90
5588;DHT22;2816;49.778;9.986;2023-02-01T09:38:24;4.70;99.90
5588;DHT22;2816;49.778;9.986;2023-02-01T09:40:53;4.80;99.90
5588;DHT22;2816;49.778;9.986;2023-02-01T09:43:28;4.80;99.90
5588;DHT22;2816;49.778;9.986;2023-02-01T09:46:04;4.70;99.90
5588;DHT22;2816;49.778;9.986;2023-02-01T09:48:38;4.80;99.90
5588;DHT22;2816;49.778;9.986;2023-02-01T09:51:13;4.70;99.90
5588;DHT22;2816;49.778;9.986;2023-02-01T09:53:43;5.10;99.90
5588;DHT22;2816;49.778;9.986;2023-02-01T09:56:14;5.00;99.90
5588;DHT22;2816;49.778;9.986;2023-02-01T09:58:47;5.00;99.90
5588;DHT22;2816;49.778;9.986;2023-02-01T10:01:19;5.00;99.90
5588;DHT22;2816;49.778;9.986;2023-02-01T10:03:47;5.10;99.90
5588;DHT22;2816;49.778;9.986;2023-02-01T10:06:30;5.10;99.90
5588;DHT22;2816;49.778;9.986;2023-02-01T10:09:15;5.20;99.90
5588;DHT22;2816;49.778;9.986;2023-02-01T10:11:54;5.20;99.90
5588;DHT22;2816;49.778;9.986;2023-02-01T10:14:51;5.10;99.90
5588;DHT22;2816;49.778;9.986;2023-02-01T10:17:31;5.10;99.90
5588;DHT22;2816;49.778;9.986;2023-02-01T10:20:10;5.00;99.90
5588;DHT22;2816;49.778;9.986;2023-02-01T10:22:45;5.10;99.90
5588;DHT22;2816;49.778;9.986;2023-02-01T10:25:17;5.10;99.90
5588;DHT22;2816;49.778;9.986;2023-02-01T10:27:49;5.00;99.90
5588;DHT22;2816;49.778;9.986;2023-02-01T10:30:20;5.10;99.90
5588;DHT22;2816;49.778;9.986;2023-02-01T10:32:49;5.10;99.90
5588;DHT22;2816;49.778;9.986;2023-02-01T10:35:22;5.20;99.90
5588;DHT22;2816;49.778;9.986;2023-02-01T10:37:52;5.10;99.90
5588;DHT22;2816;49.778;9.986;2023-02-01T10:40:21;5.30;99.90
5588;DHT22;2816;49.778;9.986;2023-02-01T10:42:50;5.40;99.90
5588;DHT22;2816;49.778;9.986;2023-02-01T10:45:19;5.20;99.90
5588;DHT22;2816;49.778;9.986;2023-02-01T10:47:49;5.40;99.90
5588;DHT22;2816;49.778;9.986;2023-02-01T10:50:29;5.60;99.90
5588;DHT22;2816;49.778;9.986;2023-02-01T10:53:03;5.80;99.90
5588;DHT22;2816;49.778;9.986;2023-02-01T10:55:38;5.80;99.90
5588;DHT22;2816;49.778;9.986;2023-02-01T10:58:07;5.60;99.90
5588;DHT22;2816;49.778;9.986;2023-02-01T11:00:46;5.50;99.90
5588;DHT22;2816;49.778;9.986;2023-02-01T11:03:31;5.40;99.90
5588;DHT22;2816;49.778;9.986;2023-02-01T11:05:58;5.40;99.90
5588;DHT22;2816;49.778;9.986;2023-02-01T11:08:27;5.50;99.90
5588;DHT22;2816;49.778;9.986;2023-02-01T11:10:58;5.50;99.90
5588;DHT22;2816;49.778;9.986;2023-02-01T11:13:29;5.40;99.90
5588;DHT22;2816;49.778;9.986;2023-02-01T11:15:57;5.30;99.90
5588;DHT22;2816;49.778;9.986;2023-02-01T11:18:27;5.40;99.90
5588;DHT22;2816;49.778;9.986;2023-02-01T11:20:54;5.30;99.90
5588;DHT22;2816;49.778;9.986;2023-02-01T11:23:23;5.20;99.90
5588;DHT22;2816;49.778;9.986;2023-02-01T11:25:53;5.30;99.90
5588;DHT22;2816;49.778;9.986;2023-02-01T11:28:22;5.40;99.90
5588;DHT22;2816;49.778;9.986;2023-02-01T11:30:52;5.60;99.90
5588;DHT22;2816;49.778;9.986;2023-02-01T11:33:24;5.80;99.90
5588;DHT22;2816;49.778;9.986;2023-02-01T11:35:55;5.80;99.90
5588;DHT22;2816;49.778;9.986;2023-02-01T11:38:27;5.90;99.90
5588;DHT22;2816;49.778;9.986;2023-02-01T11:41:11;5.80;99.90
5588;DHT22;2816;49.778;9.986;2023-02-01T11:43:51;6.00;99.90
5588;DHT22;2816;49.778;9.986;2023-02-01T11:46:19;6.00;99.90
5588;DHT22;2816;49.778;9.986;2023-02-01T11:48:51;6.10;99.90
5588;DHT22;2816;49.778;9.986;2023-02-01T11:51:29;6.00;99.90
5588;DHT22;2816;49.778;9.986;2023-02-01T11:54:14;5.90;99.90
5588;DHT22;2816;49.778;9.986;2023-02-01T11:56:50;6.10;99.90
5588;DHT22;2816;49.778;9.986;2023-02-01T11:59:28;6.10;99.90
5588;DHT22;2816;49.778;9.986;2023-02-01T12:02:23;6.10;99.90
5588;DHT22;2816;49.778;9.986;2023-02-01T12:05:26;6.10;99.90
5588;DHT22;2816;49.778;9.986;2023-02-01T12:08:09;6.10;99.90
5588;DHT22;2816;49.778;9.986;2023-02-01T12:10:49;6.00;99.90
5588;DHT22;2816;49.778;9.986;2023-02-01T12:13:30;5.90;99.90
5588;DHT22;2816;49.778;9.986;2023-02-01T12:16:11;5.90;99.90
5588;DHT22;2816;49.778;9.986;2023-02-01T12:18:59;5.80;99.90
5588;DHT22;2816;49.778;9.986;2023-02-01T12:21:43;5.80;99.90
5588;DHT22;2816;49.778;9.986;2023-02-01T12:24:46;5.70;99.90
5588;DHT22;2816;49.778;9.986;2023-02-01T12:27:28;5.80;99.90
5588;DHT22;2816;49.778;9.986;2023-02-01T12:30:16;5.80;99.90
5588;DHT22;2816;49.778;9.986;2023-02-01T12:32:57;5.80;99.90
5588;DHT22;2816;49.778;9.986;2023-02-01T12:35:49;5.80;99.90
5588;DHT22;2816;49.778;9.986;2023-02-01T12:38:32;5.80;99.90
5588;DHT22;2816;49.778;9.986;2023-02-01T12:41:10;5.80;99.90
5588;DHT22;2816;49.778;9.986;2023-02-01T12:43:43;5.80;99.90
5588;DHT22;2816;49.778;9.986;2023-02-01T12:46:18;5.90;99.90
5588;DHT22;2816;49.778;9.986;2023-02-01T12:48:55;5.60;99.90
5588;DHT22;2816;49.778;9.986;2023-02-01T12:51:27;5.80;99.90
5588;DHT22;2816;49.778;9.986;2023-02-01T12:53:59;5.60;99.90
5588;DHT22;2816;49.778;9.986;2023-02-01T12:56:32;5.70;99.90
5588;DHT22;2816;49.778;9.986;2023-02-01T12:59:04;5.70;99.90
5588;DHT22;2816;49.778;9.986;2023-02-01T13:01:35;5.90;99.90
5588;DHT22;2816;49.778;9.986;2023-02-01T13:04:08;6.00;99.90
5588;DHT22;2816;49.778;9.986;2023-02-01T13:06:39;6.00;99.90
5588;DHT22;2816;49.778;9.986;2023-02-01T13:09:18;5.90;99.90
5588;DHT22;2816;49.778;9.986;2023-02-01T13:11:48;5.80;99.90
5588;DHT22;2816;49.778;9.986;2023-02-01T13:14:29;5.70;99.90
5588;DHT22;2816;49.778;9.986;2023-02-01T13:17:03;5.90;99.90
5588;DHT22;2816;49.778;9.986;2023-02-01T13:19:41;5.90;99.90
5588;DHT22;2816;49.778;9.986;2023-02-01T13:22:12;5.80;99.90
5588;DHT22;2816;49.778;9.986;2023-02-01T13:24:43;5.80;99.90
5588;DHT22;2816;49.778;9.986;2023-02-01T13:27:11;5.80;99.90
5588;DHT22;2816;49.778;9.986;2023-02-01T13:29:45;5.80;99.90
5588;DHT22;2816;49.778;9.986;2023-02-01T13:32:37;5.70;99.90
5588;DHT22;2816;49.778;9.986;2023-02-01T13:35:22;5.70;99.90
5588;DHT22;2816;49.778;9.986;2023-02-01T13:41:12;5.80;99.90
5588;DHT22;2816;49.778;9.986;2023-02-01T13:43:44;5.80;99.90
5588;DHT22;2816;49.778;9.986;2023-02-01T13:46:13;5.80;99.90
5588;DHT22;2816;49.778;9.986;2023-02-01T13:48:49;5.70;99.90
5588;DHT22;2816;49.778;9.986;2023-02-01T13:51:28;5.70;99.90
5588;DHT22;2816;49.778;9.986;2023-02-01T13:53:57;5.60;99.90
5588;DHT22;2816;49.778;9.986;2023-02-01T13:56:24;5.50;99.90
5588;DHT22;2816;49.778;9.986;2023-02-01T13:58:52;5.50;99.90
5588;DHT22;2816;49.778;9.986;2023-02-01T14:01:35;5.50;99.90
5588;DHT22;2816;49.778;9.986;2023-02-01T14:04:05;5.60;99.90
5588;DHT22;2816;49.778;9.986;2023-02-01T14:06:44;5.70;99.90
5588;DHT22;2816;49.778;9.986;2023-02-01T14:09:30;5.60;99.90
5588;DHT22;2816;49.778;9.986;2023-02-01T14:11:58;5.50;99.90
5588;DHT22;2816;49.778;9.986;2023-02-01T14:14:47;5.50;99.90
5588;DHT22;2816;49.778;9.986;2023-02-01T14:17:39;5.50;99.90
5588;DHT22;2816;49.778;9.986;2023-02-01T14:26:10;5.60;99.90
5588;DHT22;2816;49.778;9.986;2023-02-01T14:28:41;5.60;99.90
5588;DHT22;2816;49.778;9.986;2023-02-01T14:31:37;5.60;99.90
5588;DHT22;2816;49.778;9.986;2023-02-01T14:34:15;5.60;99.90
5588;DHT22;2816;49.778;9.986;2023-02-01T14:36:46;5.60;99.90
5588;DHT22;2816;49.778;9.986;2023-02-01T14:39:28;5.50;99.90
5588;DHT22;2816;49.778;9.986;2023-02-01T14:41:59;5.60;99.90
5588;DHT22;2816;49.778;9.986;2023-02-01T14:44:29;5.60;99.90
5588;DHT22;2816;49.778;9.986;2023-02-01T14:47:25;5.50;99.90
5588;DHT22;2816;49.778;9.986;2023-02-01T14:55:52;5.60;99.90
5588;DHT22;2816;49.778;9.986;2023-02-01T14:58:29;5.60;99.90
5588;DHT22;2816;49.778;9.986;2023-02-01T15:01:00;5.70;99.90
5588;DHT22;2816;49.778;9.986;2023-02-01T15:03:44;5.80;99.90
5588;DHT22;2816;49.778;9.986;2023-02-01T15:06:26;5.90;99.90
5588;DHT22;2816;49.778;9.986;2023-02-01T15:08:56;5.80;99.90
5588;DHT22;2816;49.778;9.986;2023-02-01T15:11:25;5.80;99.90
5588;DHT22;2816;49.778;9.986;2023-02-01T15:13:53;5.60;99.90
5588;DHT22;2816;49.778;9.986;2023-02-01T15:16:23;5.70;99.90
5588;DHT22;2816;49.778;9.986;2023-02-01T15:18:50;5.80;99.90
5588;DHT22;2816;49.778;9.986;2023-02-01T15:21:46;5.70;99.90
5588;DHT22;2816;49.778;9.986;2023-02-01T15:24:18;5.70;99.90
5588;DHT22;2816;49.778;9.986;2023-02-01T15:26:47;5.60;99.90
5588;DHT22;2816;49.778;9.986;2023-02-01T15:29:14;5.70;99.90
5588;DHT22;2816;49.778;9.986;2023-02-01T15:31:43;5.70;99.90
5588;DHT22;2816;49.778;9.986;2023-02-01T15:34:11;5.70;99.90
5588;DHT22;2816;49.778;9.986;2023-02-01T15:36:39;5.70;99.90
5588;DHT22;2816;49.778;9.986;2023-02-01T15:39:21;5.70;99.90
5588;DHT22;2816;49.778;9.986;2023-02-01T15:41:54;5.80;99.90
5588;DHT22;2816;49.778;9.986;2023-02-01T15:44:39;5.70;99.90
5588;DHT22;2816;49.778;9.986;2023-02-01T15:47:13;5.50;99.90
5588;DHT22;2816;49.778;9.986;2023-02-01T15:49:43;5.50;99.90
5588;DHT22;2816;49.778;9.986;2023-02-01T15:52:24;5.40;99.90
5588;DHT22;2816;49.778;9.986;2023-02-01T15:54:55;5.50;99.90
5588;DHT22;2816;49.778;9.986;2023-02-01T15:57:27;5.40;99.90
5588;DHT22;2816;49.778;9.986;2023-02-01T15:59:57;5.60;99.90
5588;DHT22;2816;49.778;9.986;2023-02-01T16:02:26;5.40;99.90
5588;DHT22;2816;49.778;9.986;2023-02-01T16:04:53;5.40;99.90
5588;DHT22;2816;49.778;9.986;2023-02-01T16:07:26;5.50;99.90
5588;DHT22;2816;49.778;9.986;2023-02-01T16:09:55;5.50;99.90
5588;DHT22;2816;49.778;9.986;2023-02-01T16:12:29;5.50;99.90
5588;DHT22;2816;49.778;9.986;2023-02-01T16:14:56;5.50;99.90
5588;DHT22;2816;49.778;9.986;2023-02-01T16:17:23;5.50;99.90
5588;DHT22;2816;49.778;9.986;2023-02-01T16:19:50;5.40;99.90
5588;DHT22;2816;49.778;9.986;2023-02-01T16:22:17;5.40;99.90
5588;DHT22;2816;49.778;9.986;2023-02-01T16:24:44;5.30;99.90
5588;DHT22;2816;49.778;9.986;2023-02-01T16:27:11;5.40;99.90
5588;DHT22;2816;49.778;9.986;2023-02-01T16:29:40;5.30;99.90
5588;DHT22;2816;49.778;9.986;2023-02-01T16:32:12;5.40;99.90
5588;DHT22;2816;49.778;9.986;2023-02-01T16:34:40;5.40;99.90
5588;DHT22;2816;49.778;9.986;2023-02-01T16:37:11;5.30;99.90
5588;DHT22;2816;49.778;9.986;2023-02-01T16:39:39;5.30;99.90
5588;DHT22;2816;49.778;9.986;2023-02-01T16:42:10;5.40;99.90
5588;DHT22;2816;49.778;9.986;2023-02-01T16:44:37;5.20;99.90
5588;DHT22;2816;49.778;9.986;2023-02-01T16:47:12;5.10;99.90
5588;DHT22;2816;49.778;9.986;2023-02-01T16:49:40;5.20;99.90
5588;DHT22;2816;49.778;9.986;2023-02-01T16:52:13;5.30;99.90
5588;DHT22;2816;49.778;9.986;2023-02-01T16:54:41;5.30;99.90
5588;DHT22;2816;49.778;9.986;2023-02-01T16:57:11;5.30;99.90
5588;DHT22;2816;49.778;9.986;2023-02-01T16:59:39;5.40;99.90
5588;DHT22;2816;49.778;9.986;2023-02-01T17:02:10;5.30;99.90
5588;DHT22;2816;49.778;9.986;2023-02-01T17:04:38;5.30;99.90
5588;DHT22;2816;49.778;9.986;2023-02-01T17:07:05;5.20;99.90
5588;DHT22;2816;49.778;9.986;2023-02-01T17:09:35;5.20;99.90